Orlando, FL (32830)

2:18 PM EDT on September 16, 2014 (GMT -0400)
Artisan Park - Celebration | Change Station
CLOSE
Current Station
Personal Weather Station
Location: Celebration, FL
Elevation: 102 ft
Nearby Weather Stations

Elev 102 ft 28.30 °N, 81.56 °W | Updated 25 seconds ago

Partly Cloudy
Partly Cloudy
90.9 °F
Feels Like 99 °F
N
4.0
Wind Variable Wind from NW
Gusts 4.9 mph

Today
High -- | Low -- °F
--% Chance of Precip.
Yesterday
High -- | Low -- °F
Precip. -- in
7:11 AM 7:29 PM
Last Quarter, 43% visible
Pressure 30.04 in
Visibility 10.0 miles
Clouds Scattered Clouds 4500 ft
Heat Index 99 °F
Dew Point 72 °F
Humidity 55%
Rainfall 0.00 in
Snow Depth Not available.
UV 10 out of 12
Pollen 7.30 out of 12
Ozone Good
PM2.5 Moderate
Flu Activity Not available.
METAR KISM 161750Z 32007KT 10SM SCT045 32/22 A3004

More Conditions Fewer Conditions

Pressure 30.04 in
Visibility 10.0 miles
Clouds Scattered Clouds 4500 ft
Heat Index 99 °F
Dew Point 72 °F
Humidity 55%
Rainfall 0.00 in
Snow Depth Not available.
UV 10 out of 12
Pollen 7.30 out of 12
Ozone Good
PM2.5 Moderate
Flu Activity Not available.
METAR KISM 161750Z 32007KT 10SM SCT045 32/22 A3004

More Conditions Fewer Conditions

Nowcast | as of 12:47 PM EDT on September 16, 2014

The East Coast sea breeze has developed along the coast south of the cape. Scattered showers and storms will develop along this boundary along or just inland from the coast especially Saint Lucie and Martin counties as well as around Lake Okeechobee. This convection should generally push to the south around 10 mph. Additional storms are expected to develop over portions of Lake...Seminole...Orange and Volusia counties this afternoon and move toward the east at 10 to 15 mph toward the coast. Additional details...including graphics are available online at: http://www.Srh.NOAA.Gov/mlb/blog.Php

×

10-Day Weather Forecast

Almanac

Astronomy

Sep. 16, 2014 Rise Set
Actual Time 7:11 AM EDT 7:29 PM EDT
Civil Twilight 6:48 AM EDT 7:53 PM EDT
Nautical Twilight 6:20 AM EDT 8:20 PM EDT
Astronomical Twilight 5:52 AM EDT 8:48 PM EDT
Moon 12:41 AM EDT 2:31 PM EDT
Length of Visible Light 13h 05m
Length of Day
12h 18m
Tomorrow will be 1m 40s shorter.
Last Quarter, 43% of the Moon is Illuminated
Today
Last Quarter
Sep 24
New
Oct 1
First Quarter
Oct 8
Full
Oct 15
Last Quarter

Today's Extremes

State Highs State Lows

Community

WunderPhotos

Upload Photos

1,753,850 photos uploaded!

WunderBlogs® & News

Nearby

Air Quality

  Air Quality AQ Index Pollutant
Yesterday Moderate
PM2.5
Yesterday Good
OZONE
Current Moderate
PM2.5
Current Good
OZONE
Tuesday Good
PM2.5

Snow Depth

Station Depth Elevation
No new snow has been reported.

Earthquake Activity

City Distance Mag. Time & Date
No recent earthquake activity has been reported nearby.
Minimum magnitude displayed is 2.5.

Coastal Water Temperatures

Place Temperature
No Stations Reporting

Nearby Weather Stations